createdAt,value
2018-04-17T00:01:16.470Z,96.45
2018-04-17T00:04:18.985Z,96.65
2018-04-17T00:07:21.452Z,96.68
2018-04-17T00:10:23.961Z,96.99
2018-04-17T00:13:26.475Z,97.06
2018-04-17T00:16:28.932Z,97.06
2018-04-17T00:19:31.551Z,97.06
2018-04-17T00:22:34.031Z,97.18
2018-04-17T00:25:36.519Z,97.27
2018-04-17T00:28:39.011Z,97.34
2018-04-17T00:31:41.555Z,97.40
2018-04-17T00:34:43.989Z,97.45
2018-04-17T00:37:46.496Z,97.50
2018-04-17T00:40:49.094Z,97.64
2018-04-17T00:43:51.560Z,97.63
2018-04-17T00:46:54.052Z,97.74
2018-04-17T00:49:56.537Z,97.74
2018-04-17T00:52:59.016Z,97.89
2018-04-17T00:56:01.489Z,97.96
2018-04-17T00:59:04.046Z,97.95
2018-04-17T01:02:06.522Z,97.99
2018-04-17T01:05:09.013Z,98.05
2018-04-17T01:08:11.541Z,98.19
2018-04-17T01:11:14.047Z,98.20
2018-04-17T01:14:16.519Z,98.22
2018-04-17T01:17:18.987Z,98.25
2018-04-17T01:20:21.490Z,98.38
2018-04-17T01:23:23.946Z,98.42
2018-04-17T01:26:26.439Z,98.52
2018-04-17T01:29:28.898Z,98.51
2018-04-17T01:32:31.351Z,98.56
2018-04-17T01:35:33.892Z,98.68
2018-04-17T01:38:36.332Z,98.74
2018-04-17T01:41:38.788Z,98.77
2018-04-17T01:44:41.233Z,98.85
2018-04-17T01:47:43.719Z,98.86
2018-04-17T01:50:46.196Z,98.93
2018-04-17T01:53:48.669Z,99.09
2018-04-17T01:56:51.134Z,99.13
2018-04-17T01:59:53.609Z,99.20
2018-04-17T02:02:56.100Z,99.22
2018-04-17T02:05:58.602Z,99.23
2018-04-17T02:09:01.120Z,99.33
2018-04-17T02:12:03.621Z,99.31
2018-04-17T02:15:06.167Z,99.32
2018-04-17T02:18:08.731Z,99.35
2018-04-17T02:21:11.175Z,99.44
2018-04-17T02:24:13.754Z,99.50
2018-04-17T02:27:16.216Z,99.49
2018-04-17T02:30:18.771Z,99.58
2018-04-17T02:33:21.232Z,99.70
2018-04-17T02:36:23.753Z,99.75
2018-04-17T02:39:26.212Z,99.77
2018-04-17T02:42:28.727Z,99.78
2018-04-17T02:45:31.222Z,99.76
2018-04-17T02:48:33.687Z,99.93
2018-04-17T02:51:36.192Z,99.96
2018-04-17T02:54:38.705Z,99.93
2018-04-17T02:57:41.161Z,100.38
2018-04-17T03:00:43.730Z,100.25
2018-04-17T03:03:46.245Z,100.58
2018-04-17T03:06:48.793Z,101.11
2018-04-17T03:09:51.284Z,100.79
2018-04-17T03:12:53.825Z,100.82
2018-04-17T03:15:56.349Z,100.74
2018-04-17T03:18:58.825Z,100.69
2018-04-17T03:22:01.324Z,100.81
2018-04-17T03:25:03.889Z,100.74
2018-04-17T03:28:06.388Z,100.74
2018-04-17T03:31:08.853Z,100.70
2018-04-17T03:34:11.356Z,100.66
2018-04-17T03:37:13.959Z,100.95
2018-04-17T03:40:16.530Z,101.20
2018-04-17T03:43:18.999Z,101.06
2018-04-17T03:46:21.518Z,101.04
2018-04-17T03:49:24.025Z,101.14
2018-04-17T03:52:26.500Z,101.11
2018-04-17T03:55:29.033Z,101.05
2018-04-17T03:58:31.562Z,101.06
2018-04-17T04:01:34.110Z,101.09
2018-04-17T04:04:36.610Z,101.06
2018-04-17T04:07:39.072Z,101.22
2018-04-17T04:10:41.574Z,101.28
2018-04-17T04:13:44.024Z,101.20
2018-04-17T04:16:58.384Z,101.23
2018-04-17T04:20:12.686Z,101.49
2018-04-17T04:23:27.159Z,101.50
2018-04-17T04:26:31.358Z,101.64
2018-04-17T04:29:33.861Z,101.53
2018-04-17T04:32:36.359Z,101.57
2018-04-17T04:35:38.953Z,101.63
2018-04-17T04:38:41.516Z,101.63
2018-04-17T04:41:44.142Z,101.62
2018-04-17T04:44:46.755Z,101.67
2018-04-17T04:47:49.258Z,101.65
2018-04-17T04:50:51.783Z,101.70
2018-04-17T04:53:54.280Z,101.83
2018-04-17T04:56:56.771Z,101.68
2018-04-17T04:59:59.268Z,101.32
2018-04-17T05:03:01.823Z,101.00
2018-04-17T05:06:04.338Z,100.78
2018-04-17T05:09:06.811Z,100.41
2018-04-17T05:12:09.334Z,100.25
2018-04-17T05:15:11.819Z,99.84
2018-04-17T05:18:14.316Z,99.53
2018-04-17T05:21:16.796Z,97.89
2018-04-17T05:24:19.306Z,95.83
2018-04-17T05:27:21.810Z,93.93
2018-04-17T05:30:24.328Z,91.63
2018-04-17T05:33:26.834Z,82.64
2018-04-17T05:36:29.296Z,81.46
2018-04-17T05:39:31.766Z,76.45
2018-04-17T05:42:34.231Z,78.53
2018-04-17T05:45:36.676Z,79.14
2018-04-17T05:48:39.214Z,79.44
2018-04-17T05:51:41.684Z,76.73
2018-04-17T05:54:44.184Z,77.11
2018-04-17T05:57:46.692Z,77.46
2018-04-17T06:00:49.136Z,79.51
2018-04-17T06:03:51.630Z,81.07
2018-04-17T06:06:54.066Z,82.18
2018-04-17T06:09:56.612Z,81.68
2018-04-17T06:12:59.115Z,81.91
2018-04-17T06:16:01.606Z,85.95
2018-04-17T06:19:04.196Z,85.35
2018-04-17T06:22:06.697Z,86.18
2018-04-17T06:25:09.177Z,86.11
2018-04-17T06:28:11.667Z,86.30
2018-04-17T06:31:14.115Z,86.55
2018-04-17T06:34:16.576Z,84.64
2018-04-17T06:37:19.020Z,83.94
2018-04-17T06:40:21.514Z,77.72
2018-04-17T06:43:23.981Z,70.66
2018-04-17T06:46:26.462Z,69.10
2018-04-17T06:49:29.000Z,69.23
2018-04-17T06:52:31.481Z,71.67
2018-04-17T06:55:33.981Z,72.32
2018-04-17T06:58:36.460Z,72.41
2018-04-17T07:01:38.996Z,75.95
2018-04-17T07:04:41.467Z,73.48
2018-04-17T07:07:44.028Z,74.67
2018-04-17T07:10:46.584Z,76.96
2018-04-17T07:13:49.248Z,74.41
2018-04-17T07:16:51.698Z,73.91
2018-04-17T07:19:54.187Z,75.70
2018-04-17T07:22:56.668Z,74.50
2018-04-17T07:25:59.206Z,75.99
2018-04-17T07:29:01.701Z,75.58
2018-04-17T07:32:04.154Z,74.01
2018-04-17T07:35:06.647Z,74.74
2018-04-17T07:38:09.131Z,72.90
2018-04-17T07:41:11.627Z,69.49
2018-04-17T07:44:14.090Z,71.13
2018-04-17T07:47:30.363Z,71.87
2018-04-17T07:50:32.823Z,72.86
2018-04-17T07:53:36.938Z,71.26
2018-04-17T07:56:39.454Z,72.88
2018-04-17T07:59:41.936Z,70.57
2018-04-17T08:02:44.481Z,70.97
2018-04-17T08:05:46.926Z,72.32
2018-04-17T08:08:49.504Z,69.88
2018-04-17T08:11:51.984Z,70.69
2018-04-17T08:14:54.507Z,71.77
2018-04-17T08:17:56.967Z,70.81
2018-04-17T08:20:59.467Z,71.19
2018-04-17T08:24:01.999Z,72.16
2018-04-17T08:27:04.457Z,72.13
2018-04-17T08:30:06.972Z,72.70
2018-04-17T08:33:09.514Z,72.44
2018-04-17T08:36:12.018Z,69.20
2018-04-17T08:39:14.517Z,73.31
2018-04-17T08:42:16.997Z,72.62
2018-04-17T08:45:19.473Z,72.30
2018-04-17T08:48:22.053Z,69.68
2018-04-17T08:51:24.604Z,71.18
2018-04-17T08:54:27.091Z,71.13
2018-04-17T08:57:29.631Z,70.71
2018-04-17T09:00:32.113Z,72.01
2018-04-17T09:03:34.608Z,71.14
2018-04-17T09:06:37.083Z,71.81
2018-04-17T09:09:39.637Z,71.63
2018-04-17T09:12:42.091Z,70.35
2018-04-17T09:15:44.568Z,69.84
2018-04-17T09:18:47.128Z,69.88
2018-04-17T09:21:49.681Z,67.59
2018-04-17T09:24:52.249Z,67.65
2018-04-17T09:27:54.716Z,67.30
2018-04-17T09:30:57.229Z,66.19
2018-04-17T09:33:59.740Z,66.14
2018-04-17T09:37:02.245Z,64.79
2018-04-17T09:40:04.704Z,61.07
2018-04-17T09:43:07.193Z,63.79
2018-04-17T09:46:09.669Z,61.92
2018-04-17T09:49:12.172Z,60.61
2018-04-17T09:52:14.650Z,59.98
2018-04-17T09:55:17.103Z,61.05
2018-04-17T09:58:19.593Z,61.67
2018-04-17T10:01:22.093Z,61.04
2018-04-17T10:04:24.644Z,59.40
2018-04-17T10:07:27.142Z,58.26
2018-04-17T10:10:29.659Z,61.58
2018-04-17T10:13:32.236Z,59.12
2018-04-17T10:16:34.699Z,60.71
2018-04-17T10:19:37.197Z,55.97
2018-04-17T10:22:39.712Z,52.85
2018-04-17T10:25:42.208Z,52.82
2018-04-17T10:28:44.691Z,52.49
2018-04-17T10:31:47.196Z,52.85
2018-04-17T10:34:49.666Z,49.89
2018-04-17T10:37:52.167Z,47.51
2018-04-17T10:40:54.667Z,48.09
2018-04-17T10:43:57.150Z,48.53
2018-04-17T10:46:59.598Z,49.63
2018-04-17T10:50:02.138Z,47.69
2018-04-17T10:53:04.649Z,49.41
2018-04-17T10:56:07.176Z,51.67
2018-04-17T10:59:09.676Z,52.62
2018-04-17T11:02:12.144Z,47.44
2018-04-17T11:05:14.659Z,48.60
2018-04-17T11:08:17.122Z,50.51
2018-04-17T11:11:19.699Z,48.95
2018-04-17T11:14:22.260Z,50.66
2018-04-17T11:17:24.819Z,47.13
2018-04-17T11:20:27.379Z,45.64
2018-04-17T11:23:29.879Z,45.15
2018-04-17T11:26:32.344Z,47.63
2018-04-17T11:29:34.866Z,46.40
2018-04-17T11:32:37.314Z,43.42
2018-04-17T11:35:39.899Z,44.37
2018-04-17T11:38:42.389Z,43.74
2018-04-17T11:41:44.898Z,42.64
2018-04-17T11:44:47.355Z,43.71
2018-04-17T11:47:49.819Z,42.12
2018-04-17T11:50:52.324Z,43.84
2018-04-17T11:53:54.835Z,42.19
2018-04-17T11:56:57.372Z,43.08
2018-04-17T11:59:59.829Z,41.99
2018-04-17T12:03:06.105Z,41.68
2018-04-17T12:06:08.665Z,42.10
2018-04-17T12:09:11.178Z,44.79
2018-04-17T12:12:13.668Z,43.03
2018-04-17T12:15:16.156Z,43.95
2018-04-17T12:18:18.691Z,45.03
2018-04-17T12:21:21.210Z,44.62
2018-04-17T12:24:23.654Z,42.67
2018-04-17T12:27:26.144Z,45.29
2018-04-17T12:30:28.620Z,42.51
2018-04-17T12:33:31.138Z,42.68
2018-04-17T12:36:33.647Z,42.72
2018-04-17T12:39:36.139Z,43.05
2018-04-17T12:42:38.600Z,43.39
2018-04-17T12:45:41.111Z,45.15
2018-04-17T12:48:43.574Z,42.64
2018-04-17T12:51:46.077Z,43.28
2018-04-17T12:54:48.563Z,44.50
2018-04-17T12:57:51.039Z,43.13
2018-04-17T13:00:53.550Z,41.65
2018-04-17T13:03:56.028Z,42.20
2018-04-17T13:06:58.572Z,40.48
2018-04-17T13:10:01.039Z,40.15
2018-04-17T13:13:03.539Z,41.32
2018-04-17T13:16:06.102Z,41.49
2018-04-17T13:19:08.614Z,42.04
2018-04-17T13:22:11.105Z,41.68
2018-04-17T13:25:13.589Z,41.28
2018-04-17T13:28:16.091Z,42.20
2018-04-17T13:31:18.535Z,42.16
2018-04-17T13:34:21.070Z,39.14
2018-04-17T13:37:23.532Z,38.59
2018-04-17T13:40:26.021Z,40.88
2018-04-17T13:43:28.543Z,40.35
2018-04-17T13:46:31.056Z,41.42
2018-04-17T13:49:33.578Z,39.47
2018-04-17T13:52:36.105Z,38.14
2018-04-17T13:55:38.576Z,39.66
2018-04-17T13:58:41.060Z,39.27
2018-04-17T14:01:43.622Z,41.92
2018-04-17T14:04:46.110Z,40.08
2018-04-17T14:07:48.609Z,38.20
2018-04-17T14:10:51.206Z,38.73
2018-04-17T14:13:53.763Z,39.10
2018-04-17T14:16:56.254Z,39.97
2018-04-17T14:19:58.721Z,42.06
2018-04-17T14:23:01.226Z,37.20
2018-04-17T14:26:03.734Z,38.04
2018-04-17T14:29:06.234Z,38.83
2018-04-17T14:32:08.835Z,38.44
2018-04-17T14:35:11.361Z,37.39
2018-04-17T14:38:13.948Z,35.44
2018-04-17T14:41:16.428Z,34.38
2018-04-17T14:44:18.996Z,35.50
2018-04-17T14:47:21.525Z,35.29
2018-04-17T14:50:23.982Z,35.46
2018-04-17T14:53:26.477Z,35.58
2018-04-17T14:56:28.983Z,35.02
2018-04-17T14:59:31.580Z,36.43
2018-04-17T15:02:36.524Z,37.17
2018-04-17T15:05:39.241Z,36.79
2018-04-17T15:08:41.767Z,38.14
2018-04-17T15:11:44.235Z,36.58
2018-04-17T15:14:46.723Z,37.16
2018-04-17T15:17:49.223Z,36.86
2018-04-17T15:20:51.683Z,41.29
2018-04-17T15:23:54.248Z,40.11
2018-04-17T15:26:56.697Z,39.36
2018-04-17T15:29:59.477Z,38.91
2018-04-17T15:33:01.942Z,38.51
2018-04-17T15:36:04.423Z,38.08
2018-04-17T15:39:06.962Z,38.74
2018-04-17T15:42:09.417Z,38.01
2018-04-17T15:45:11.987Z,39.07
2018-04-17T15:48:14.502Z,39.52
2018-04-17T15:51:17.013Z,37.42
2018-04-17T15:54:19.482Z,39.34
2018-04-17T15:57:22.032Z,39.21
2018-04-17T16:00:24.593Z,37.61
2018-04-17T16:03:27.162Z,38.29
2018-04-17T16:06:29.721Z,39.26
2018-04-17T16:09:32.188Z,39.33
2018-04-17T16:12:34.696Z,38.44
2018-04-17T16:15:37.132Z,39.45
2018-04-17T16:18:39.609Z,38.16
2018-04-17T16:21:42.113Z,39.36
2018-04-17T16:24:44.649Z,41.58
2018-04-17T16:27:47.133Z,41.24
2018-04-17T16:30:49.634Z,39.68
2018-04-17T16:33:52.130Z,40.29
2018-04-17T16:36:54.613Z,39.25
2018-04-17T16:39:57.094Z,38.75
2018-04-17T16:42:59.571Z,39.69
2018-04-17T16:46:02.080Z,40.13
2018-04-17T16:49:04.679Z,39.91
2018-04-17T16:52:07.144Z,40.52
2018-04-17T16:55:09.611Z,41.61
2018-04-17T16:58:12.172Z,41.90
2018-04-17T17:01:14.739Z,42.70
2018-04-17T17:04:17.169Z,42.56
2018-04-17T17:07:19.688Z,43.55
2018-04-17T17:10:22.213Z,46.17
2018-04-17T17:13:24.744Z,44.61
2018-04-17T17:16:27.336Z,44.77
2018-04-17T17:19:29.899Z,44.99
2018-04-17T17:22:32.559Z,44.48
2018-04-17T17:25:35.106Z,42.63
2018-04-17T17:28:37.590Z,44.70
2018-04-17T17:31:40.099Z,46.21
2018-04-17T17:34:42.624Z,47.44
2018-04-17T17:37:45.143Z,45.03
2018-04-17T17:40:47.693Z,46.67
2018-04-17T17:43:50.307Z,48.13
2018-04-17T17:46:52.825Z,48.74
2018-04-17T17:49:55.322Z,49.00
2018-04-17T17:52:57.894Z,48.34
2018-04-17T17:56:00.461Z,49.13
2018-04-17T17:59:03.031Z,49.69
2018-04-17T18:02:05.564Z,50.18
2018-04-17T18:05:08.145Z,50.45
2018-04-17T18:08:10.828Z,50.84
2018-04-17T18:11:13.523Z,50.63
2018-04-17T18:14:16.032Z,51.18
2018-04-17T18:17:18.531Z,52.32
2018-04-17T18:20:21.044Z,53.25
2018-04-17T18:23:23.526Z,53.62
2018-04-17T18:26:26.100Z,53.07
2018-04-17T18:29:28.569Z,54.10
2018-04-17T18:32:31.103Z,54.15
2018-04-17T18:35:33.599Z,55.12
2018-04-17T18:38:36.141Z,54.75
2018-04-17T18:41:38.621Z,55.42
2018-04-17T18:44:41.155Z,55.87
2018-04-17T18:47:43.685Z,55.40
2018-04-17T18:50:46.166Z,55.78
2018-04-17T18:53:48.708Z,56.60
2018-04-17T18:56:51.236Z,57.07
2018-04-17T18:59:53.785Z,57.76
2018-04-17T19:02:56.365Z,58.85
2018-04-17T19:05:58.861Z,57.56
2018-04-17T19:09:01.378Z,57.10
2018-04-17T19:12:03.899Z,56.91
2018-04-17T19:15:06.587Z,56.90
2018-04-17T19:18:09.234Z,57.15
2018-04-17T19:21:11.786Z,56.97
2018-04-17T19:24:14.368Z,56.67
2018-04-17T19:27:16.919Z,56.82
2018-04-17T19:30:19.512Z,57.13
2018-04-17T19:33:22.965Z,58.35
2018-04-17T19:36:25.503Z,58.02
2018-04-17T19:39:28.042Z,57.74
2018-04-17T19:42:30.509Z,57.51
2018-04-17T19:45:33.272Z,57.93
2018-04-17T19:48:35.788Z,57.00
2018-04-17T19:51:38.291Z,57.28
2018-04-17T19:54:40.880Z,57.48
2018-04-17T19:57:44.259Z,57.33
2018-04-17T20:00:49.674Z,57.27
2018-04-17T20:03:52.453Z,58.25
2018-04-17T20:06:54.943Z,58.61
2018-04-17T20:09:57.465Z,59.41
2018-04-17T20:13:00.040Z,59.28
2018-04-17T20:16:02.516Z,59.27
2018-04-17T20:19:05.157Z,59.38
2018-04-17T20:22:07.679Z,59.41
2018-04-17T20:25:10.163Z,58.87
2018-04-17T20:28:12.670Z,59.86
2018-04-17T20:31:15.246Z,59.63
2018-04-17T20:34:17.730Z,59.24
2018-04-17T20:37:20.247Z,58.45
2018-04-17T20:40:22.763Z,57.61
2018-04-17T20:43:25.243Z,57.55
2018-04-17T20:46:27.793Z,57.85
2018-04-17T20:49:30.253Z,58.00
2018-04-17T20:52:32.765Z,57.81
2018-04-17T20:55:35.268Z,57.69
2018-04-17T20:58:37.800Z,58.01
2018-04-17T21:01:40.275Z,57.36
2018-04-17T21:04:42.776Z,57.67
2018-04-17T21:07:45.230Z,57.81
2018-04-17T21:10:47.761Z,57.68
2018-04-17T21:13:50.238Z,57.53
2018-04-17T21:16:52.742Z,57.27
2018-04-17T21:19:55.233Z,57.92
2018-04-17T21:22:57.815Z,58.25
2018-04-17T21:26:00.347Z,58.87
2018-04-17T21:29:02.823Z,59.59
2018-04-17T21:32:05.316Z,59.35
2018-04-17T21:35:07.820Z,59.73
2018-04-17T21:38:10.312Z,58.81
2018-04-17T21:41:12.867Z,59.63
2018-04-17T21:44:15.336Z,59.94
2018-04-17T21:47:17.875Z,60.04
2018-04-17T21:50:20.386Z,60.09
2018-04-17T21:53:22.924Z,60.22
2018-04-17T21:56:25.423Z,60.38
2018-04-17T21:59:27.926Z,60.86
2018-04-17T22:02:30.424Z,61.26
2018-04-17T22:05:32.896Z,62.00
2018-04-17T22:08:35.418Z,62.50
2018-04-17T22:11:37.963Z,61.62
2018-04-17T22:14:40.509Z,61.86
2018-04-17T22:17:42.954Z,61.63
2018-04-17T22:20:45.442Z,61.77
2018-04-17T22:23:47.916Z,60.10
2018-04-17T22:26:50.542Z,61.39
2018-04-17T22:29:52.974Z,61.90
2018-04-17T22:32:55.440Z,61.84
2018-04-17T22:35:57.917Z,61.27
2018-04-17T22:39:00.508Z,60.83
2018-04-17T22:42:02.986Z,61.75
2018-04-17T22:45:05.477Z,62.73
2018-04-17T22:48:07.965Z,62.78
2018-04-17T22:51:10.522Z,61.84
2018-04-17T22:54:12.985Z,62.52
2018-04-17T22:57:15.481Z,63.31
2018-04-17T23:00:17.941Z,63.89
2018-04-17T23:03:20.446Z,63.24
2018-04-17T23:06:22.990Z,64.67
2018-04-17T23:09:25.465Z,64.46
2018-04-17T23:12:27.957Z,64.64
2018-04-17T23:15:30.402Z,64.73
2018-04-17T23:18:32.866Z,64.98
2018-04-17T23:21:35.355Z,65.15
2018-04-17T23:24:37.832Z,65.29
2018-04-17T23:27:40.412Z,65.00
2018-04-17T23:30:42.986Z,64.52
2018-04-17T23:33:45.472Z,65.62
2018-04-17T23:36:47.923Z,65.46
2018-04-17T23:39:50.443Z,65.83
2018-04-17T23:42:52.957Z,66.54
2018-04-17T23:45:55.455Z,66.97
2018-04-17T23:48:57.971Z,66.99
2018-04-17T23:52:00.500Z,67.30
2018-04-17T23:55:02.998Z,67.20
2018-04-17T23:58:05.448Z,67.93
